Terminal Aerodrome Forecast
Issued by NWS

Home | Current Version | Previous Version | Text Only | Print | Product List | Glossary On
Versions: 1 2 3 4 5 6 7 8 9 10 11 12 13
000
FTUS45 KABQ 282300
TAFLVS
TAF
KLVS 282322Z 2900/2924 VRB06KT P6SM FEW100
      TEMPO 2900/2902 24013G23KT
     FM292000 16010G18KT P6SM VCSH BKN120=

USA.gov is the U.S. government's official web portal to all federal, state and local government web resources and services.